Williamsport Regional Airport
KIPT : now visible

Airfield :











YOU CAN JOIN US ON...

 
LOGIN :

Register | Disclaimer

   EN    FR    IT 

 









Legend :    VFR   Marginal VFR   IFR   Intensive IFR   Very Intensive IFR
Visi :
Ceiling :
>= 8 km
>= 3000ft
5 to 8 km
1000 to 3000 ft
1500m to 5 km
500 to 1000 ft
800 to 1500m
200 to 500 ft
< 800m
< 200 ft
Symbols :   Thunderstorms  Fog  Heavy snow  Heavy precipitations  Wind > 20 kt







- Airport Elevation : 529 ft
- IATA code : IPT


KIPT - Williamsport Regional

CURRENT METAR :
  • 181854Z 00000KT 10SM FEW030 SCT046 31/21 A2986 RMK AO2 SLP104 T03060211

EXPIRED METARs :
  • 181811Z 00000KT 10SM BKN030 BKN038 BKN049 29/22 A2987 RMK AO2 T02940217 $
  • 181804Z 22003KT 10SM BKN029 OVC035 29/22 A2987 RMK AO2 T02890217 $
  • 181654Z 24004KT 10SM FEW025 SCT060 OVC080 29/22 A2989 RMK AO2 SLP117 T02890217 $

TAF KIPT
Valid from the 18 at 18:00 until the 19 at 18:00 UTC


181740Z 1818/1918 VRB03KT P6SM VCSH SCT030 BKN050
FM182100 VRB03KT P6SM BKN035
FM190500 00000KT 4SM BR SCT007
TEMPO 1909/1912 BKN004
FM191200 25005KT 6SM HZ FEW040 BKN200
KZNY FIR / North America



MET'MAP, your aeronautical weather chart ! - Copyright ORBIFLY December 2007 - Disclaimer

ORBIFLY MET'MAP TEAM :

Programming & Development : Alexandra Zaïnal
Concept & Development : Baudouin d'Aumeries
Co-Development & Prog : Marc-Olivier Méhu
Technical & hardware support : Manuel Goepfert

Contact : metmap@orbifly.com




SOURCES & CREDITS :

   NOAA       Earth
Advisory